Avalon, Texas
Current Conditions -  °F | °C
As of 12:35 AM on Sunday 26 Oct 2014 (Local Time) from KJWY Reporting Station
Clear Clear  
Wind Chill: 68°   Ceiling: Unl
Heat Index: 68°   Visibility: 10mi
Dew Point: 60°   Wind: 3mph
Humidity: 76%   Direction: 170°S
Pressure: 30.06"   Gusts: NA
Location:  32.21°N, 96.79°W
Report Text: KJWY 260535Z AUTO 17003KT 10SM CLR 20/16 A3006 RMK AO2 T01990156
Loading
Personal Weather Stations






























Interactive Weather Map
Tropical Storm Tracking
New forecast layout! Learn more

10-Day Weather Forecast

Advertisements
Track Severe Weather on mobile